sensor_id;sensor_type;location;lat;lon;timestamp;P1;durP1;ratioP1;P2;durP2;ratioP2
21014;SDS011;19207;-23.482;-46.500;2022-11-23T00:00:19;42.83;;;23.20;;
21014;SDS011;19207;-23.482;-46.500;2022-11-23T00:03:06;64.45;;;29.70;;
21014;SDS011;19207;-23.482;-46.500;2022-11-23T00:05:53;54.83;;;31.77;;
21014;SDS011;19207;-23.482;-46.500;2022-11-23T00:08:39;63.10;;;34.42;;
21014;SDS011;19207;-23.482;-46.500;2022-11-23T00:11:27;70.45;;;37.90;;
21014;SDS011;19207;-23.482;-46.500;2022-11-23T00:14:14;93.47;;;45.80;;
21014;SDS011;19207;-23.482;-46.500;2022-11-23T00:17:00;143.73;;;54.40;;
21014;SDS011;19207;-23.482;-46.500;2022-11-23T00:19:47;148.07;;;57.13;;
21014;SDS011;19207;-23.482;-46.500;2022-11-23T00:22:34;131.93;;;52.53;;
21014;SDS011;19207;-23.482;-46.500;2022-11-23T00:25:21;129.43;;;54.38;;
21014;SDS011;19207;-23.482;-46.500;2022-11-23T00:28:07;129.05;;;54.50;;
21014;SDS011;19207;-23.482;-46.500;2022-11-23T00:30:54;121.25;;;53.20;;
21014;SDS011;19207;-23.482;-46.500;2022-11-23T00:33:41;106.03;;;47.15;;
21014;SDS011;19207;-23.482;-46.500;2022-11-23T00:36:27;108.35;;;48.80;;
21014;SDS011;19207;-23.482;-46.500;2022-11-23T00:39:14;115.22;;;47.35;;
21014;SDS011;19207;-23.482;-46.500;2022-11-23T00:42:00;139.88;;;53.75;;
21014;SDS011;19207;-23.482;-46.500;2022-11-23T00:44:46;164.30;;;64.25;;
21014;SDS011;19207;-23.482;-46.500;2022-11-23T00:47:33;270.10;;;90.45;;
21014;SDS011;19207;-23.482;-46.500;2022-11-23T00:50:19;267.23;;;102.50;;
21014;SDS011;19207;-23.482;-46.500;2022-11-23T00:53:07;152.65;;;73.18;;
21014;SDS011;19207;-23.482;-46.500;2022-11-23T00:55:53;173.05;;;81.65;;
21014;SDS011;19207;-23.482;-46.500;2022-11-23T00:58:40;176.45;;;79.15;;
21014;SDS011;19207;-23.482;-46.500;2022-11-23T01:01:28;138.60;;;69.35;;
21014;SDS011;19207;-23.482;-46.500;2022-11-23T01:04:15;138.85;;;62.10;;
21014;SDS011;19207;-23.482;-46.500;2022-11-23T01:07:01;115.12;;;55.10;;
21014;SDS011;19207;-23.482;-46.500;2022-11-23T01:09:47;92.12;;;41.13;;
21014;SDS011;19207;-23.482;-46.500;2022-11-23T01:12:34;73.30;;;35.78;;
21014;SDS011;19207;-23.482;-46.500;2022-11-23T01:15:20;74.60;;;34.72;;
21014;SDS011;19207;-23.482;-46.500;2022-11-23T01:18:06;63.08;;;30.83;;
21014;SDS011;19207;-23.482;-46.500;2022-11-23T01:20:53;56.47;;;28.48;;
21014;SDS011;19207;-23.482;-46.500;2022-11-23T01:23:40;52.60;;;26.30;;
21014;SDS011;19207;-23.482;-46.500;2022-11-23T01:26:26;104.18;;;53.70;;
21014;SDS011;19207;-23.482;-46.500;2022-11-23T01:29:14;135.25;;;69.00;;
21014;SDS011;19207;-23.482;-46.500;2022-11-23T01:32:00;204.65;;;69.00;;
21014;SDS011;19207;-23.482;-46.500;2022-11-23T01:34:47;226.15;;;60.28;;
21014;SDS011;19207;-23.482;-46.500;2022-11-23T01:37:33;135.27;;;40.72;;
21014;SDS011;19207;-23.482;-46.500;2022-11-23T01:40:19;135.85;;;48.63;;
21014;SDS011;19207;-23.482;-46.500;2022-11-23T01:43:06;100.20;;;36.65;;
21014;SDS011;19207;-23.482;-46.500;2022-11-23T01:45:56;143.23;;;47.33;;
21014;SDS011;19207;-23.482;-46.500;2022-11-23T01:48:56;115.55;;;38.50;;
21014;SDS011;19207;-23.482;-46.500;2022-11-23T01:51:43;126.47;;;40.15;;
21014;SDS011;19207;-23.482;-46.500;2022-11-23T01:54:31;150.07;;;45.67;;
21014;SDS011;19207;-23.482;-46.500;2022-11-23T01:57:21;154.23;;;52.85;;
21014;SDS011;19207;-23.482;-46.500;2022-11-23T02:00:08;175.15;;;59.53;;
21014;SDS011;19207;-23.482;-46.500;2022-11-23T02:02:58;174.18;;;60.38;;
21014;SDS011;19207;-23.482;-46.500;2022-11-23T02:05:46;136.40;;;57.58;;
21014;SDS011;19207;-23.482;-46.500;2022-11-23T02:08:33;118.22;;;56.97;;
21014;SDS011;19207;-23.482;-46.500;2022-11-23T02:11:19;156.85;;;65.50;;
21014;SDS011;19207;-23.482;-46.500;2022-11-23T02:14:06;140.82;;;61.33;;
21014;SDS011;19207;-23.482;-46.500;2022-11-23T02:16:52;109.97;;;46.10;;
21014;SDS011;19207;-23.482;-46.500;2022-11-23T02:28:42;55.33;;;26.08;;
21014;SDS011;19207;-23.482;-46.500;2022-11-23T02:31:29;41.72;;;22.92;;
21014;SDS011;19207;-23.482;-46.500;2022-11-23T02:34:16;45.28;;;22.23;;
21014;SDS011;19207;-23.482;-46.500;2022-11-23T02:37:03;71.55;;;40.55;;
21014;SDS011;19207;-23.482;-46.500;2022-11-23T02:39:50;73.32;;;39.10;;
21014;SDS011;19207;-23.482;-46.500;2022-11-23T02:42:37;58.30;;;25.08;;
21014;SDS011;19207;-23.482;-46.500;2022-11-23T02:45:29;54.97;;;29.40;;
21014;SDS011;19207;-23.482;-46.500;2022-11-23T02:48:17;54.92;;;24.08;;
21014;SDS011;19207;-23.482;-46.500;2022-11-23T02:51:04;48.87;;;22.73;;
21014;SDS011;19207;-23.482;-46.500;2022-11-23T02:53:51;48.78;;;21.27;;
21014;SDS011;19207;-23.482;-46.500;2022-11-23T02:56:38;51.88;;;23.83;;
21014;SDS011;19207;-23.482;-46.500;2022-11-23T02:59:26;47.00;;;23.02;;
21014;SDS011;19207;-23.482;-46.500;2022-11-23T03:02:14;58.55;;;25.20;;
21014;SDS011;19207;-23.482;-46.500;2022-11-23T03:05:00;91.15;;;38.83;;
21014;SDS011;19207;-23.482;-46.500;2022-11-23T03:07:47;59.28;;;27.90;;
21014;SDS011;19207;-23.482;-46.500;2022-11-23T03:10:34;56.37;;;27.00;;
21014;SDS011;19207;-23.482;-46.500;2022-11-23T03:13:20;64.55;;;30.70;;
21014;SDS011;19207;-23.482;-46.500;2022-11-23T03:16:07;73.62;;;35.58;;
21014;SDS011;19207;-23.482;-46.500;2022-11-23T03:18:54;76.03;;;36.88;;
21014;SDS011;19207;-23.482;-46.500;2022-11-23T03:21:41;84.97;;;39.80;;
21014;SDS011;19207;-23.482;-46.500;2022-11-23T03:24:28;92.10;;;40.63;;
21014;SDS011;19207;-23.482;-46.500;2022-11-23T03:27:15;87.80;;;39.00;;
21014;SDS011;19207;-23.482;-46.500;2022-11-23T03:30:02;84.45;;;40.15;;
21014;SDS011;19207;-23.482;-46.500;2022-11-23T03:32:50;137.12;;;57.85;;
21014;SDS011;19207;-23.482;-46.500;2022-11-23T03:35:37;114.90;;;49.97;;
21014;SDS011;19207;-23.482;-46.500;2022-11-23T03:38:27;113.43;;;48.38;;
21014;SDS011;19207;-23.482;-46.500;2022-11-23T03:41:14;107.97;;;49.55;;
21014;SDS011;19207;-23.482;-46.500;2022-11-23T03:44:00;103.72;;;43.67;;
21014;SDS011;19207;-23.482;-46.500;2022-11-23T03:46:47;96.37;;;43.50;;
21014;SDS011;19207;-23.482;-46.500;2022-11-23T03:49:34;89.60;;;40.45;;
21014;SDS011;19207;-23.482;-46.500;2022-11-23T03:52:21;78.07;;;34.88;;
21014;SDS011;19207;-23.482;-46.500;2022-11-23T03:55:08;79.03;;;36.35;;
21014;SDS011;19207;-23.482;-46.500;2022-11-23T03:57:55;83.57;;;36.88;;
21014;SDS011;19207;-23.482;-46.500;2022-11-23T04:00:43;84.43;;;37.45;;
21014;SDS011;19207;-23.482;-46.500;2022-11-23T04:03:30;77.78;;;32.78;;
21014;SDS011;19207;-23.482;-46.500;2022-11-23T04:06:17;77.22;;;35.67;;
21014;SDS011;19207;-23.482;-46.500;2022-11-23T04:09:04;76.53;;;34.10;;
21014;SDS011;19207;-23.482;-46.500;2022-11-23T04:11:52;65.78;;;33.03;;
21014;SDS011;19207;-23.482;-46.500;2022-11-23T04:14:39;65.43;;;31.95;;
21014;SDS011;19207;-23.482;-46.500;2022-11-23T04:17:26;72.43;;;32.25;;
21014;SDS011;19207;-23.482;-46.500;2022-11-23T04:20:13;66.25;;;30.52;;
21014;SDS011;19207;-23.482;-46.500;2022-11-23T04:23:00;63.63;;;29.65;;
21014;SDS011;19207;-23.482;-46.500;2022-11-23T04:25:47;59.17;;;29.42;;
21014;SDS011;19207;-23.482;-46.500;2022-11-23T04:28:34;59.85;;;29.33;;
21014;SDS011;19207;-23.482;-46.500;2022-11-23T04:31:20;63.75;;;29.12;;
21014;SDS011;19207;-23.482;-46.500;2022-11-23T04:34:08;61.22;;;28.35;;
21014;SDS011;19207;-23.482;-46.500;2022-11-23T04:36:54;46.50;;;23.95;;
21014;SDS011;19207;-23.482;-46.500;2022-11-23T04:39:41;41.13;;;23.12;;
21014;SDS011;19207;-23.482;-46.500;2022-11-23T04:42:28;45.75;;;24.77;;
21014;SDS011;19207;-23.482;-46.500;2022-11-23T04:45:15;45.25;;;23.35;;
21014;SDS011;19207;-23.482;-46.500;2022-11-23T04:48:01;47.47;;;25.37;;
21014;SDS011;19207;-23.482;-46.500;2022-11-23T04:50:48;53.65;;;28.08;;
21014;SDS011;19207;-23.482;-46.500;2022-11-23T04:53:35;79.75;;;35.35;;
21014;SDS011;19207;-23.482;-46.500;2022-11-23T04:56:22;80.93;;;36.47;;
21014;SDS011;19207;-23.482;-46.500;2022-11-23T04:59:09;101.15;;;42.03;;
21014;SDS011;19207;-23.482;-46.500;2022-11-23T05:01:55;116.37;;;46.70;;
21014;SDS011;19207;-23.482;-46.500;2022-11-23T05:04:42;104.60;;;38.10;;
21014;SDS011;19207;-23.482;-46.500;2022-11-23T05:07:29;82.85;;;33.15;;
21014;SDS011;19207;-23.482;-46.500;2022-11-23T05:10:17;73.30;;;32.80;;
21014;SDS011;19207;-23.482;-46.500;2022-11-23T05:13:03;77.90;;;31.90;;
21014;SDS011;19207;-23.482;-46.500;2022-11-23T05:15:50;110.63;;;35.53;;
21014;SDS011;19207;-23.482;-46.500;2022-11-23T05:18:37;99.47;;;35.00;;
21014;SDS011;19207;-23.482;-46.500;2022-11-23T05:21:23;91.72;;;34.58;;
21014;SDS011;19207;-23.482;-46.500;2022-11-23T05:24:10;96.30;;;33.55;;
21014;SDS011;19207;-23.482;-46.500;2022-11-23T05:26:57;115.10;;;36.20;;
21014;SDS011;19207;-23.482;-46.500;2022-11-23T05:29:44;83.40;;;33.58;;
21014;SDS011;19207;-23.482;-46.500;2022-11-23T05:32:31;71.75;;;31.42;;
21014;SDS011;19207;-23.482;-46.500;2022-11-23T05:35:17;76.05;;;31.90;;
21014;SDS011;19207;-23.482;-46.500;2022-11-23T05:38:04;81.25;;;33.00;;
21014;SDS011;19207;-23.482;-46.500;2022-11-23T05:40:51;70.43;;;30.65;;
21014;SDS011;19207;-23.482;-46.500;2022-11-23T05:43:38;80.57;;;34.13;;
21014;SDS011;19207;-23.482;-46.500;2022-11-23T05:46:24;84.57;;;34.53;;
21014;SDS011;19207;-23.482;-46.500;2022-11-23T05:49:11;86.28;;;35.75;;
21014;SDS011;19207;-23.482;-46.500;2022-11-23T05:51:57;89.07;;;35.65;;
21014;SDS011;19207;-23.482;-46.500;2022-11-23T05:54:44;98.90;;;37.50;;
21014;SDS011;19207;-23.482;-46.500;2022-11-23T05:57:31;86.87;;;34.83;;
21014;SDS011;19207;-23.482;-46.500;2022-11-23T06:00:18;90.72;;;36.88;;
21014;SDS011;19207;-23.482;-46.500;2022-11-23T06:03:05;106.35;;;38.60;;
21014;SDS011;19207;-23.482;-46.500;2022-11-23T06:05:52;101.20;;;36.72;;
21014;SDS011;19207;-23.482;-46.500;2022-11-23T06:08:40;93.53;;;38.58;;
21014;SDS011;19207;-23.482;-46.500;2022-11-23T06:11:27;82.47;;;36.22;;
21014;SDS011;19207;-23.482;-46.500;2022-11-23T06:14:15;78.32;;;39.00;;
21014;SDS011;19207;-23.482;-46.500;2022-11-23T06:17:02;104.63;;;52.83;;
21014;SDS011;19207;-23.482;-46.500;2022-11-23T06:19:49;105.30;;;55.08;;
21014;SDS011;19207;-23.482;-46.500;2022-11-23T06:22:35;96.70;;;49.22;;
21014;SDS011;19207;-23.482;-46.500;2022-11-23T06:25:22;97.97;;;51.08;;
21014;SDS011;19207;-23.482;-46.500;2022-11-23T06:28:09;96.95;;;52.22;;
21014;SDS011;19207;-23.482;-46.500;2022-11-23T06:31:00;107.00;;;51.95;;
21014;SDS011;19207;-23.482;-46.500;2022-11-23T06:33:47;96.78;;;51.42;;
21014;SDS011;19207;-23.482;-46.500;2022-11-23T06:36:34;117.20;;;55.78;;
21014;SDS011;19207;-23.482;-46.500;2022-11-23T06:39:20;99.85;;;51.25;;
21014;SDS011;19207;-23.482;-46.500;2022-11-23T06:42:07;104.38;;;46.95;;
21014;SDS011;19207;-23.482;-46.500;2022-11-23T06:44:54;90.87;;;44.75;;
21014;SDS011;19207;-23.482;-46.500;2022-11-23T06:47:41;106.55;;;45.78;;
21014;SDS011;19207;-23.482;-46.500;2022-11-23T06:50:28;93.47;;;43.95;;
21014;SDS011;19207;-23.482;-46.500;2022-11-23T06:53:14;90.22;;;46.63;;
21014;SDS011;19207;-23.482;-46.500;2022-11-23T06:56:01;91.68;;;42.50;;
21014;SDS011;19207;-23.482;-46.500;2022-11-23T06:58:48;46.30;;;23.42;;
21014;SDS011;19207;-23.482;-46.500;2022-11-23T07:01:35;39.90;;;19.00;;
21014;SDS011;19207;-23.482;-46.500;2022-11-23T07:04:22;27.87;;;13.70;;
21014;SDS011;19207;-23.482;-46.500;2022-11-23T07:07:08;31.10;;;16.67;;
21014;SDS011;19207;-23.482;-46.500;2022-11-23T07:09:55;25.90;;;14.68;;
21014;SDS011;19207;-23.482;-46.500;2022-11-23T07:12:43;26.35;;;13.30;;
21014;SDS011;19207;-23.482;-46.500;2022-11-23T07:15:31;26.33;;;14.63;;
21014;SDS011;19207;-23.482;-46.500;2022-11-23T07:18:18;34.85;;;16.85;;
21014;SDS011;19207;-23.482;-46.500;2022-11-23T07:21:05;30.37;;;16.50;;
21014;SDS011;19207;-23.482;-46.500;2022-11-23T07:23:52;29.58;;;15.80;;
21014;SDS011;19207;-23.482;-46.500;2022-11-23T07:26:38;30.65;;;16.00;;
21014;SDS011;19207;-23.482;-46.500;2022-11-23T07:29:25;27.75;;;15.38;;
21014;SDS011;19207;-23.482;-46.500;2022-11-23T07:32:12;40.22;;;19.15;;
21014;SDS011;19207;-23.482;-46.500;2022-11-23T07:34:59;39.38;;;19.92;;
21014;SDS011;19207;-23.482;-46.500;2022-11-23T07:37:46;41.40;;;20.40;;
21014;SDS011;19207;-23.482;-46.500;2022-11-23T07:40:33;39.13;;;19.30;;
21014;SDS011;19207;-23.482;-46.500;2022-11-23T07:43:19;51.45;;;26.67;;
21014;SDS011;19207;-23.482;-46.500;2022-11-23T07:46:06;39.55;;;20.27;;
21014;SDS011;19207;-23.482;-46.500;2022-11-23T07:48:53;57.40;;;25.20;;
21014;SDS011;19207;-23.482;-46.500;2022-11-23T07:51:43;65.75;;;30.33;;
21014;SDS011;19207;-23.482;-46.500;2022-11-23T07:54:29;62.00;;;34.08;;
21014;SDS011;19207;-23.482;-46.500;2022-11-23T07:57:16;71.72;;;34.00;;
21014;SDS011;19207;-23.482;-46.500;2022-11-23T08:00:02;67.65;;;29.60;;
21014;SDS011;19207;-23.482;-46.500;2022-11-23T08:02:57;49.55;;;22.05;;
21014;SDS011;19207;-23.482;-46.500;2022-11-23T08:05:44;32.88;;;14.85;;
21014;SDS011;19207;-23.482;-46.500;2022-11-23T08:08:31;26.23;;;14.63;;
21014;SDS011;19207;-23.482;-46.500;2022-11-23T08:11:19;23.90;;;12.77;;
21014;SDS011;19207;-23.482;-46.500;2022-11-23T08:14:06;26.92;;;12.27;;
21014;SDS011;19207;-23.482;-46.500;2022-11-23T08:16:53;24.65;;;12.43;;
21014;SDS011;19207;-23.482;-46.500;2022-11-23T08:19:40;25.30;;;14.25;;
21014;SDS011;19207;-23.482;-46.500;2022-11-23T08:22:26;29.52;;;13.32;;
21014;SDS011;19207;-23.482;-46.500;2022-11-23T08:25:13;21.65;;;12.70;;
21014;SDS011;19207;-23.482;-46.500;2022-11-23T08:28:01;29.52;;;13.27;;
21014;SDS011;19207;-23.482;-46.500;2022-11-23T08:30:47;26.35;;;14.32;;
21014;SDS011;19207;-23.482;-46.500;2022-11-23T08:33:34;24.23;;;14.23;;
21014;SDS011;19207;-23.482;-46.500;2022-11-23T08:36:21;30.83;;;16.17;;
21014;SDS011;19207;-23.482;-46.500;2022-11-23T08:39:07;27.05;;;15.48;;
21014;SDS011;19207;-23.482;-46.500;2022-11-23T08:41:55;25.15;;;14.57;;
21014;SDS011;19207;-23.482;-46.500;2022-11-23T08:44:41;31.35;;;14.60;;
21014;SDS011;19207;-23.482;-46.500;2022-11-23T08:47:28;22.45;;;12.57;;
21014;SDS011;19207;-23.482;-46.500;2022-11-23T08:50:15;26.92;;;12.88;;
21014;SDS011;19207;-23.482;-46.500;2022-11-23T08:53:01;30.15;;;12.85;;
21014;SDS011;19207;-23.482;-46.500;2022-11-23T08:55:48;27.60;;;12.80;;
21014;SDS011;19207;-23.482;-46.500;2022-11-23T08:58:34;27.23;;;13.73;;
21014;SDS011;19207;-23.482;-46.500;2022-11-23T09:01:21;30.83;;;14.10;;
21014;SDS011;19207;-23.482;-46.500;2022-11-23T09:04:08;28.90;;;13.75;;
21014;SDS011;19207;-23.482;-46.500;2022-11-23T09:06:55;30.10;;;13.82;;
21014;SDS011;19207;-23.482;-46.500;2022-11-23T09:09:41;23.45;;;14.20;;
21014;SDS011;19207;-23.482;-46.500;2022-11-23T09:12:28;29.70;;;14.63;;
21014;SDS011;19207;-23.482;-46.500;2022-11-23T09:15:15;23.70;;;14.27;;
21014;SDS011;19207;-23.482;-46.500;2022-11-23T09:18:02;30.58;;;15.18;;
21014;SDS011;19207;-23.482;-46.500;2022-11-23T09:20:48;28.12;;;15.23;;
21014;SDS011;19207;-23.482;-46.500;2022-11-23T09:23:35;28.02;;;15.05;;
21014;SDS011;19207;-23.482;-46.500;2022-11-23T09:26:21;29.55;;;15.85;;
21014;SDS011;19207;-23.482;-46.500;2022-11-23T09:29:08;32.05;;;16.00;;
21014;SDS011;19207;-23.482;-46.500;2022-11-23T09:31:55;32.08;;;15.82;;
21014;SDS011;19207;-23.482;-46.500;2022-11-23T09:34:42;31.27;;;15.75;;
21014;SDS011;19207;-23.482;-46.500;2022-11-23T09:37:29;33.47;;;15.90;;
21014;SDS011;19207;-23.482;-46.500;2022-11-23T09:40:15;33.58;;;16.30;;
21014;SDS011;19207;-23.482;-46.500;2022-11-23T09:45:52;34.42;;;17.20;;
21014;SDS011;19207;-23.482;-46.500;2022-11-23T09:51:46;41.15;;;18.35;;
21014;SDS011;19207;-23.482;-46.500;2022-11-23T09:54:35;38.58;;;18.02;;
21014;SDS011;19207;-23.482;-46.500;2022-11-23T09:57:23;38.70;;;17.55;;
21014;SDS011;19207;-23.482;-46.500;2022-11-23T10:00:18;33.72;;;17.40;;
21014;SDS011;19207;-23.482;-46.500;2022-11-23T10:03:08;37.63;;;17.40;;
21014;SDS011;19207;-23.482;-46.500;2022-11-23T10:06:00;37.85;;;19.33;;
21014;SDS011;19207;-23.482;-46.500;2022-11-23T10:08:51;47.53;;;21.58;;
21014;SDS011;19207;-23.482;-46.500;2022-11-23T10:22:57;68.82;;;28.83;;
21014;SDS011;19207;-23.482;-46.500;2022-11-23T10:25:48;60.05;;;27.65;;
21014;SDS011;19207;-23.482;-46.500;2022-11-23T10:28:36;62.17;;;29.67;;
21014;SDS011;19207;-23.482;-46.500;2022-11-23T10:31:23;60.10;;;28.52;;
21014;SDS011;19207;-23.482;-46.500;2022-11-23T10:34:11;55.42;;;27.15;;
21014;SDS011;19207;-23.482;-46.500;2022-11-23T10:36:58;57.75;;;25.50;;
21014;SDS011;19207;-23.482;-46.500;2022-11-23T10:39:45;49.95;;;25.08;;
21014;SDS011;19207;-23.482;-46.500;2022-11-23T10:42:37;46.40;;;24.00;;
21014;SDS011;19207;-23.482;-46.500;2022-11-23T10:45:26;51.67;;;23.60;;
21014;SDS011;19207;-23.482;-46.500;2022-11-23T10:48:17;44.53;;;23.67;;
21014;SDS011;19207;-23.482;-46.500;2022-11-23T10:51:28;48.03;;;22.25;;
21014;SDS011;19207;-23.482;-46.500;2022-11-23T11:00:17;27.45;;;13.27;;
21014;SDS011;19207;-23.482;-46.500;2022-11-23T11:03:04;25.83;;;12.05;;
21014;SDS011;19207;-23.482;-46.500;2022-11-23T11:06:07;24.80;;;10.63;;
21014;SDS011;19207;-23.482;-46.500;2022-11-23T11:08:55;20.90;;;12.35;;
21014;SDS011;19207;-23.482;-46.500;2022-11-23T11:11:44;24.12;;;10.45;;
21014;SDS011;19207;-23.482;-46.500;2022-11-23T11:14:32;22.00;;;9.38;;
21014;SDS011;19207;-23.482;-46.500;2022-11-23T11:17:28;24.92;;;9.82;;
21014;SDS011;19207;-23.482;-46.500;2022-11-23T11:20:28;21.27;;;9.40;;
21014;SDS011;19207;-23.482;-46.500;2022-11-23T11:23:16;19.23;;;9.50;;
21014;SDS011;19207;-23.482;-46.500;2022-11-23T11:26:04;33.38;;;13.73;;
21014;SDS011;19207;-23.482;-46.500;2022-11-23T11:28:52;33.67;;;14.70;;
21014;SDS011;19207;-23.482;-46.500;2022-11-23T11:31:44;23.50;;;11.38;;
21014;SDS011;19207;-23.482;-46.500;2022-11-23T11:37:55;14.15;;;7.78;;
21014;SDS011;19207;-23.482;-46.500;2022-11-23T11:40:44;30.75;;;12.65;;
21014;SDS011;19207;-23.482;-46.500;2022-11-23T11:43:32;23.67;;;10.15;;
21014;SDS011;19207;-23.482;-46.500;2022-11-23T11:46:21;19.95;;;8.80;;
21014;SDS011;19207;-23.482;-46.500;2022-11-23T11:49:11;24.87;;;11.98;;
21014;SDS011;19207;-23.482;-46.500;2022-11-23T11:52:04;42.28;;;18.20;;
21014;SDS011;19207;-23.482;-46.500;2022-11-23T11:55:14;66.97;;;24.37;;
21014;SDS011;19207;-23.482;-46.500;2022-11-23T11:58:03;32.67;;;14.40;;
21014;SDS011;19207;-23.482;-46.500;2022-11-23T12:00:53;46.85;;;17.52;;
21014;SDS011;19207;-23.482;-46.500;2022-11-23T12:03:43;25.75;;;11.35;;
21014;SDS011;19207;-23.482;-46.500;2022-11-23T12:06:38;19.33;;;8.35;;
21014;SDS011;19207;-23.482;-46.500;2022-11-23T12:09:28;16.73;;;8.40;;
21014;SDS011;19207;-23.482;-46.500;2022-11-23T12:12:17;23.45;;;11.07;;
21014;SDS011;19207;-23.482;-46.500;2022-11-23T12:15:04;27.08;;;9.95;;
21014;SDS011;19207;-23.482;-46.500;2022-11-23T12:17:59;22.83;;;8.30;;
21014;SDS011;19207;-23.482;-46.500;2022-11-23T12:30:08;9.27;;;3.83;;
21014;SDS011;19207;-23.482;-46.500;2022-11-23T12:32:51;10.45;;;4.20;;
21014;SDS011;19207;-23.482;-46.500;2022-11-23T12:58:49;9.75;;;3.55;;
21014;SDS011;19207;-23.482;-46.500;2022-11-23T13:01:38;8.18;;;3.47;;
21014;SDS011;19207;-23.482;-46.500;2022-11-23T13:19:11;4.82;;;2.80;;
21014;SDS011;19207;-23.482;-46.500;2022-11-23T13:22:04;9.55;;;3.30;;
21014;SDS011;19207;-23.482;-46.500;2022-11-23T13:25:03;5.45;;;3.40;;
21014;SDS011;19207;-23.482;-46.500;2022-11-23T13:28:04;10.90;;;3.08;;
21014;SDS011;19207;-23.482;-46.500;2022-11-23T13:34:03;13.48;;;3.53;;
21014;SDS011;19207;-23.482;-46.500;2022-11-23T13:37:08;9.93;;;3.50;;
21014;SDS011;19207;-23.482;-46.500;2022-11-23T13:42:44;6.03;;;3.72;;
21014;SDS011;19207;-23.482;-46.500;2022-11-23T13:45:32;5.68;;;3.37;;
21014;SDS011;19207;-23.482;-46.500;2022-11-23T13:48:22;8.15;;;3.40;;
21014;SDS011;19207;-23.482;-46.500;2022-11-23T13:51:09;9.63;;;3.12;;
21014;SDS011;19207;-23.482;-46.500;2022-11-23T13:54:02;3.90;;;3.00;;
21014;SDS011;19207;-23.482;-46.500;2022-11-23T13:57:01;5.25;;;3.40;;
21014;SDS011;19207;-23.482;-46.500;2022-11-23T13:59:50;6.93;;;3.35;;
21014;SDS011;19207;-23.482;-46.500;2022-11-23T14:02:37;5.43;;;3.35;;
21014;SDS011;19207;-23.482;-46.500;2022-11-23T14:05:51;8.50;;;3.70;;
21014;SDS011;19207;-23.482;-46.500;2022-11-23T14:08:38;6.37;;;3.50;;
21014;SDS011;19207;-23.482;-46.500;2022-11-23T14:11:26;7.20;;;4.03;;
21014;SDS011;19207;-23.482;-46.500;2022-11-23T14:14:18;6.43;;;4.07;;
21014;SDS011;19207;-23.482;-46.500;2022-11-23T14:17:19;5.50;;;3.78;;
21014;SDS011;19207;-23.482;-46.500;2022-11-23T14:20:23;6.57;;;3.25;;
21014;SDS011;19207;-23.482;-46.500;2022-11-23T14:29:00;7.53;;;3.22;;
21014;SDS011;19207;-23.482;-46.500;2022-11-23T14:32:13;7.90;;;3.87;;
21014;SDS011;19207;-23.482;-46.500;2022-11-23T14:41:06;6.37;;;4.25;;
21014;SDS011;19207;-23.482;-46.500;2022-11-23T14:43:53;5.93;;;3.40;;
21014;SDS011;19207;-23.482;-46.500;2022-11-23T14:46:59;7.53;;;5.00;;
21014;SDS011;19207;-23.482;-46.500;2022-11-23T14:49:49;5.07;;;3.08;;
21014;SDS011;19207;-23.482;-46.500;2022-11-23T14:52:36;8.40;;;3.10;;
21014;SDS011;19207;-23.482;-46.500;2022-11-23T14:55:28;5.43;;;3.12;;
21014;SDS011;19207;-23.482;-46.500;2022-11-23T14:58:15;5.35;;;3.10;;
21014;SDS011;19207;-23.482;-46.500;2022-11-23T15:01:02;8.90;;;3.00;;
21014;SDS011;19207;-23.482;-46.500;2022-11-23T15:03:58;8.32;;;3.00;;
21014;SDS011;19207;-23.482;-46.500;2022-11-23T15:06:45;5.62;;;3.20;;
21014;SDS011;19207;-23.482;-46.500;2022-11-23T15:12:44;3.80;;;2.60;;
21014;SDS011;19207;-23.482;-46.500;2022-11-23T15:15:31;9.02;;;2.58;;
21014;SDS011;19207;-23.482;-46.500;2022-11-23T15:18:26;3.85;;;2.85;;
21014;SDS011;19207;-23.482;-46.500;2022-11-23T15:21:17;4.50;;;2.80;;
21014;SDS011;19207;-23.482;-46.500;2022-11-23T15:24:17;3.97;;;2.72;;
21014;SDS011;19207;-23.482;-46.500;2022-11-23T15:27:06;3.05;;;2.28;;
21014;SDS011;19207;-23.482;-46.500;2022-11-23T15:29:53;4.03;;;2.80;;
21014;SDS011;19207;-23.482;-46.500;2022-11-23T15:32:40;5.55;;;2.80;;
21014;SDS011;19207;-23.482;-46.500;2022-11-23T15:35:33;11.25;;;3.00;;
21014;SDS011;19207;-23.482;-46.500;2022-11-23T15:38:20;4.20;;;2.92;;
21014;SDS011;19207;-23.482;-46.500;2022-11-23T15:41:06;5.37;;;3.08;;
21014;SDS011;19207;-23.482;-46.500;2022-11-23T15:43:53;4.80;;;2.97;;
21014;SDS011;19207;-23.482;-46.500;2022-11-23T15:46:40;5.70;;;2.70;;
21014;SDS011;19207;-23.482;-46.500;2022-11-23T15:49:27;3.83;;;2.70;;
21014;SDS011;19207;-23.482;-46.500;2022-11-23T15:52:15;4.03;;;2.50;;
21014;SDS011;19207;-23.482;-46.500;2022-11-23T15:55:03;3.45;;;2.60;;
21014;SDS011;19207;-23.482;-46.500;2022-11-23T15:57:51;5.35;;;2.50;;
21014;SDS011;19207;-23.482;-46.500;2022-11-23T16:00:38;11.40;;;2.70;;
21014;SDS011;19207;-23.482;-46.500;2022-11-23T16:06:18;6.18;;;3.00;;
21014;SDS011;19207;-23.482;-46.500;2022-11-23T16:12:30;6.53;;;3.00;;
21014;SDS011;19207;-23.482;-46.500;2022-11-23T16:18:22;4.62;;;3.05;;
21014;SDS011;19207;-23.482;-46.500;2022-11-23T16:21:12;8.55;;;3.10;;
21014;SDS011;19207;-23.482;-46.500;2022-11-23T16:23:59;8.30;;;4.55;;
21014;SDS011;19207;-23.482;-46.500;2022-11-23T16:26:47;6.55;;;3.20;;
21014;SDS011;19207;-23.482;-46.500;2022-11-23T16:29:34;5.47;;;3.35;;
21014;SDS011;19207;-23.482;-46.500;2022-11-23T16:32:22;7.25;;;3.28;;
21014;SDS011;19207;-23.482;-46.500;2022-11-23T16:35:15;3.10;;;2.60;;
21014;SDS011;19207;-23.482;-46.500;2022-11-23T16:38:02;5.18;;;2.83;;
21014;SDS011;19207;-23.482;-46.500;2022-11-23T16:40:50;3.72;;;2.90;;
21014;SDS011;19207;-23.482;-46.500;2022-11-23T16:43:36;6.50;;;2.67;;
21014;SDS011;19207;-23.482;-46.500;2022-11-23T16:46:23;5.05;;;2.80;;
21014;SDS011;19207;-23.482;-46.500;2022-11-23T16:49:13;5.28;;;3.28;;
21014;SDS011;19207;-23.482;-46.500;2022-11-23T16:52:00;4.78;;;2.80;;
21014;SDS011;19207;-23.482;-46.500;2022-11-23T16:54:47;4.50;;;2.80;;
21014;SDS011;19207;-23.482;-46.500;2022-11-23T16:57:34;3.90;;;3.05;;
21014;SDS011;19207;-23.482;-46.500;2022-11-23T17:00:21;6.85;;;3.42;;
21014;SDS011;19207;-23.482;-46.500;2022-11-23T17:03:12;5.65;;;3.40;;
21014;SDS011;19207;-23.482;-46.500;2022-11-23T17:05:59;8.27;;;3.10;;
21014;SDS011;19207;-23.482;-46.500;2022-11-23T17:08:45;7.12;;;3.42;;
21014;SDS011;19207;-23.482;-46.500;2022-11-23T17:11:31;8.07;;;3.20;;
21014;SDS011;19207;-23.482;-46.500;2022-11-23T17:14:18;5.53;;;3.20;;
21014;SDS011;19207;-23.482;-46.500;2022-11-23T17:17:10;7.18;;;3.33;;
21014;SDS011;19207;-23.482;-46.500;2022-11-23T17:19:56;7.80;;;3.30;;
21014;SDS011;19207;-23.482;-46.500;2022-11-23T17:22:43;6.03;;;3.35;;
21014;SDS011;19207;-23.482;-46.500;2022-11-23T17:25:29;27.20;;;4.22;;
21014;SDS011;19207;-23.482;-46.500;2022-11-23T17:28:19;11.18;;;3.65;;
21014;SDS011;19207;-23.482;-46.500;2022-11-23T17:31:06;8.93;;;5.03;;
21014;SDS011;19207;-23.482;-46.500;2022-11-23T17:33:54;12.27;;;3.95;;
21014;SDS011;19207;-23.482;-46.500;2022-11-23T17:36:41;7.15;;;3.87;;
21014;SDS011;19207;-23.482;-46.500;2022-11-23T17:39:27;25.23;;;7.05;;